createdAt,value
2019-03-03T00:00:42.488Z,7.83
2019-03-03T00:03:13.921Z,7.15
2019-03-03T00:05:45.380Z,9.10
2019-03-03T00:08:16.624Z,7.15
2019-03-03T00:10:47.938Z,8.08
2019-03-03T00:13:19.250Z,7.40
2019-03-03T00:15:50.973Z,8.85
2019-03-03T00:18:22.428Z,10.53
2019-03-03T00:21:13.548Z,14.63
2019-03-03T00:23:46.221Z,12.95
2019-03-03T00:26:17.645Z,9.13
2019-03-03T00:28:48.996Z,12.28
2019-03-03T00:31:23.815Z,10.38
2019-03-03T00:33:56.336Z,8.85
2019-03-03T00:36:30.345Z,8.53
2019-03-03T00:39:06.414Z,7.42
2019-03-03T00:41:42.954Z,6.70
2019-03-03T00:44:18.622Z,5.80
2019-03-03T00:46:54.607Z,9.10
2019-03-03T00:49:30.333Z,7.70
2019-03-03T00:52:03.224Z,6.37
2019-03-03T00:54:36.211Z,8.35
2019-03-03T00:57:09.096Z,7.75
2019-03-03T00:59:41.966Z,7.60
2019-03-03T01:02:14.877Z,6.75
2019-03-03T01:04:47.697Z,6.83
2019-03-03T01:07:35.703Z,6.83
2019-03-03T01:10:15.626Z,8.40
2019-03-03T01:13:04.462Z,6.42
2019-03-03T01:15:53.756Z,6.92
2019-03-03T01:18:29.758Z,6.05
2019-03-03T01:21:02.734Z,6.42
2019-03-03T01:23:35.547Z,7.25
2019-03-03T01:26:06.861Z,6.55
2019-03-03T01:28:38.204Z,6.47
2019-03-03T01:31:09.499Z,6.25
2019-03-03T01:33:40.763Z,5.20
2019-03-03T01:36:12.098Z,7.22
2019-03-03T01:38:43.474Z,4.45
2019-03-03T01:41:14.861Z,5.47
2019-03-03T01:43:46.229Z,5.50
2019-03-03T01:46:17.460Z,5.45
2019-03-03T01:48:48.928Z,5.60
2019-03-03T01:51:20.298Z,5.70
2019-03-03T01:53:51.634Z,4.87
2019-03-03T01:56:23.992Z,4.00
2019-03-03T01:58:55.216Z,5.10
2019-03-03T02:01:26.812Z,4.67
2019-03-03T02:03:58.026Z,5.72
2019-03-03T02:06:29.225Z,4.78
2019-03-03T02:09:01.446Z,4.42
2019-03-03T02:11:34.100Z,4.72
2019-03-03T02:14:05.360Z,5.12
2019-03-03T02:16:36.707Z,5.08
2019-03-03T02:19:08.071Z,3.95
2019-03-03T02:21:39.416Z,4.45
2019-03-03T02:24:10.569Z,3.27
2019-03-03T02:26:44.428Z,4.97
2019-03-03T02:29:15.638Z,5.42
2019-03-03T02:31:46.986Z,5.05
2019-03-03T02:34:18.621Z,5.87
2019-03-03T02:36:51.349Z,6.10
2019-03-03T02:39:24.292Z,29.45
2019-03-03T02:41:57.164Z,8.60
2019-03-03T02:44:28.509Z,10.13
2019-03-03T02:46:59.864Z,10.15
2019-03-03T02:49:31.232Z,7.95
2019-03-03T02:52:02.706Z,5.62
2019-03-03T02:54:34.106Z,5.30
2019-03-03T02:57:05.905Z,8.28
2019-03-03T02:59:37.214Z,37.15
2019-03-03T03:02:10.343Z,5.78
2019-03-03T03:04:41.713Z,7.25
2019-03-03T03:07:27.596Z,9.50
2019-03-03T03:10:00.667Z,8.30
2019-03-03T03:12:33.647Z,7.90
2019-03-03T03:15:24.083Z,12.03
2019-03-03T03:17:59.895Z,14.03
2019-03-03T03:20:39.393Z,15.25
2019-03-03T03:23:18.234Z,17.35
2019-03-03T03:25:52.543Z,21.50
2019-03-03T03:28:25.597Z,26.30
2019-03-03T03:31:04.707Z,28.70
2019-03-03T03:33:42.178Z,27.02
2019-03-03T03:36:15.031Z,23.02
2019-03-03T03:38:50.791Z,20.32
2019-03-03T03:41:23.855Z,19.05
2019-03-03T03:44:02.837Z,17.12
2019-03-03T03:46:38.488Z,15.72
2019-03-03T03:49:11.401Z,12.33
2019-03-03T03:51:47.452Z,11.15
2019-03-03T03:54:36.476Z,9.73
2019-03-03T03:57:09.464Z,10.53
2019-03-03T03:59:51.365Z,11.73
2019-03-03T04:02:42.797Z,11.38
2019-03-03T04:05:21.581Z,13.72
2019-03-03T04:08:03.702Z,15.05
2019-03-03T04:13:33.726Z,15.90
2019-03-03T04:16:15.883Z,17.50
2019-03-03T04:19:01.052Z,18.37
2019-03-03T04:21:50.022Z,19.37
2019-03-03T04:24:35.940Z,18.40
2019-03-03T04:27:18.066Z,23.35
2019-03-03T04:29:51.026Z,22.55
2019-03-03T04:32:26.903Z,24.67
2019-03-03T04:35:05.670Z,26.77
2019-03-03T04:37:41.511Z,26.48
2019-03-03T04:40:17.392Z,28.83
2019-03-03T04:42:56.131Z,24.92
2019-03-03T04:45:28.971Z,24.33
2019-03-03T04:48:08.234Z,21.37
2019-03-03T04:50:41.144Z,23.10
2019-03-03T04:53:16.910Z,25.32
2019-03-03T04:55:59.563Z,24.92
2019-03-03T04:58:47.457Z,26.50
2019-03-03T05:01:23.472Z,34.80
2019-03-03T05:03:56.369Z,31.42
2019-03-03T05:06:35.377Z,29.80
2019-03-03T05:09:25.355Z,30.60
2019-03-03T05:12:13.184Z,33.70
2019-03-03T05:14:45.162Z,39.18
2019-03-03T05:19:59.210Z,36.77
2019-03-03T05:22:30.526Z,36.77
2019-03-03T05:25:01.904Z,36.38
2019-03-03T05:27:33.405Z,37.50
2019-03-03T05:30:15.416Z,40.88
2019-03-03T05:32:46.752Z,37.50
2019-03-03T05:35:18.064Z,36.05
2019-03-03T05:37:49.520Z,60.70
2019-03-03T05:40:21.529Z,68.33
2019-03-03T05:45:23.185Z,61.35
2019-03-03T05:47:54.496Z,32.83
2019-03-03T05:50:25.845Z,34.05
2019-03-03T05:52:57.218Z,46.40
2019-03-03T05:55:28.660Z,45.85
2019-03-03T05:58:00.813Z,54.45
2019-03-03T06:00:32.572Z,65.67
2019-03-03T06:03:04.040Z,33.90
2019-03-03T06:05:35.481Z,42.98
2019-03-03T06:08:06.982Z,35.58
2019-03-03T06:10:38.316Z,34.27
2019-03-03T06:13:09.638Z,33.18
2019-03-03T06:15:41.018Z,31.00
2019-03-03T06:18:13.405Z,30.70
2019-03-03T06:20:44.726Z,31.20
2019-03-03T06:23:16.266Z,29.75
2019-03-03T06:25:47.666Z,30.30
2019-03-03T06:28:19.034Z,40.23
2019-03-03T06:30:50.490Z,40.67
2019-03-03T06:33:22.053Z,46.25
2019-03-03T06:35:53.382Z,40.70
2019-03-03T06:38:24.844Z,42.90
2019-03-03T06:40:56.314Z,44.93
2019-03-03T06:43:27.735Z,38.83
2019-03-03T06:46:00.158Z,36.95
2019-03-03T06:48:31.666Z,35.10
2019-03-03T06:51:03.111Z,33.48
2019-03-03T06:53:34.487Z,41.00
2019-03-03T06:56:05.848Z,32.85
2019-03-03T06:58:37.277Z,41.40
2019-03-03T07:01:08.713Z,41.92
2019-03-03T07:03:40.175Z,38.50
2019-03-03T07:06:11.484Z,33.85
2019-03-03T07:08:42.859Z,32.58
2019-03-03T07:11:14.211Z,35.13
2019-03-03T07:13:45.908Z,23.65
2019-03-03T07:16:17.323Z,22.90
2019-03-03T07:18:48.750Z,25.60
2019-03-03T07:21:20.084Z,34.20
2019-03-03T07:23:51.559Z,38.85
2019-03-03T07:26:23.092Z,35.83
2019-03-03T07:28:54.864Z,23.47
2019-03-03T07:31:26.271Z,20.68
2019-03-03T07:33:57.766Z,18.70
2019-03-03T07:36:29.002Z,20.10
2019-03-03T07:39:00.566Z,18.65
2019-03-03T07:41:33.473Z,23.98
2019-03-03T07:44:04.901Z,20.23
2019-03-03T07:46:36.271Z,30.08
2019-03-03T07:49:07.521Z,28.12
2019-03-03T07:51:40.076Z,28.23
2019-03-03T07:54:11.520Z,31.93
2019-03-03T07:56:42.847Z,26.77
2019-03-03T07:59:14.160Z,23.02
2019-03-03T08:01:45.589Z,22.02
2019-03-03T08:04:16.947Z,17.55
2019-03-03T08:06:49.192Z,20.85
2019-03-03T08:09:20.739Z,20.10
2019-03-03T08:11:51.915Z,16.05
2019-03-03T08:14:23.359Z,12.78
2019-03-03T08:16:55.291Z,19.25
2019-03-03T08:19:26.555Z,14.85
2019-03-03T08:21:57.894Z,12.30
2019-03-03T08:24:29.231Z,10.78
2019-03-03T08:27:00.611Z,12.15
2019-03-03T08:29:33.157Z,10.40
2019-03-03T08:32:05.468Z,10.13
2019-03-03T08:34:36.795Z,10.70
2019-03-03T08:37:08.335Z,10.15
2019-03-03T08:39:39.774Z,7.90
2019-03-03T08:42:27.954Z,9.73
2019-03-03T08:45:15.874Z,8.33
2019-03-03T08:47:54.735Z,8.05
2019-03-03T08:50:27.561Z,8.58
2019-03-03T08:53:09.689Z,8.73
2019-03-03T08:55:45.279Z,7.62
2019-03-03T08:58:33.328Z,6.33
2019-03-03T09:01:09.965Z,7.85
2019-03-03T09:03:48.932Z,6.22
2019-03-03T09:06:33.832Z,5.92
2019-03-03T09:09:21.027Z,5.17
2019-03-03T09:11:53.834Z,4.97
2019-03-03T09:14:29.823Z,5.47
2019-03-03T09:17:05.761Z,4.87
2019-03-03T09:19:38.877Z,5.70
2019-03-03T09:22:28.355Z,5.20
2019-03-03T09:25:10.231Z,5.95
2019-03-03T09:27:52.080Z,6.80
2019-03-03T09:30:24.997Z,8.95
2019-03-03T09:33:14.173Z,8.08
2019-03-03T09:36:05.237Z,6.70
2019-03-03T09:38:47.276Z,9.25
2019-03-03T09:41:29.029Z,8.38
2019-03-03T09:44:18.001Z,8.70
2019-03-03T09:47:08.286Z,8.35
2019-03-03T09:49:57.492Z,8.93
2019-03-03T09:52:46.353Z,8.90
2019-03-03T09:55:28.530Z,9.18
2019-03-03T09:58:03.963Z,10.15
2019-03-03T10:00:49.103Z,11.50
2019-03-03T10:03:38.669Z,11.00
2019-03-03T10:06:23.650Z,8.40
2019-03-03T10:08:59.550Z,8.13
2019-03-03T10:11:35.431Z,10.35
2019-03-03T10:14:08.338Z,11.12
2019-03-03T10:16:41.386Z,10.93
2019-03-03T10:19:14.671Z,10.30
2019-03-03T10:21:47.871Z,11.97
2019-03-03T10:24:20.708Z,10.95
2019-03-03T10:26:59.751Z,12.33
2019-03-03T10:29:32.642Z,7.90
2019-03-03T10:32:20.649Z,10.58
2019-03-03T10:34:59.739Z,8.78
2019-03-03T10:37:32.531Z,10.28
2019-03-03T10:40:22.227Z,8.88
2019-03-03T10:43:04.017Z,9.25
2019-03-03T10:45:45.985Z,7.62
2019-03-03T10:48:18.804Z,9.28
2019-03-03T10:51:04.128Z,8.90
2019-03-03T10:53:37.003Z,7.45
2019-03-03T10:56:12.795Z,9.13
2019-03-03T10:58:54.951Z,9.45
2019-03-03T11:04:03.039Z,8.45
2019-03-03T11:06:38.952Z,6.97
2019-03-03T11:09:17.568Z,12.00
2019-03-03T11:11:50.947Z,7.03
2019-03-03T11:14:41.884Z,7.25
2019-03-03T11:17:20.442Z,5.67
2019-03-03T11:19:53.263Z,8.60
2019-03-03T11:22:35.027Z,7.40
2019-03-03T11:25:10.496Z,7.40
2019-03-03T11:27:46.147Z,6.40
2019-03-03T11:30:19.061Z,9.38
2019-03-03T11:32:51.923Z,6.97
2019-03-03T11:35:24.731Z,6.10
2019-03-03T11:38:00.574Z,7.30
2019-03-03T11:40:33.421Z,7.15
2019-03-03T11:43:09.233Z,6.85
2019-03-03T11:45:58.251Z,7.03
2019-03-03T11:48:31.081Z,7.15
2019-03-03T11:51:04.103Z,7.65
2019-03-03T11:53:42.882Z,7.80
2019-03-03T11:56:18.555Z,8.13
2019-03-03T11:58:51.467Z,10.28
2019-03-03T12:01:39.628Z,8.63
2019-03-03T12:04:15.663Z,7.42
2019-03-03T12:06:48.542Z,7.10
2019-03-03T12:09:37.300Z,7.05
2019-03-03T12:12:13.286Z,8.10
2019-03-03T12:15:01.129Z,9.90
2019-03-03T12:17:36.671Z,10.28
2019-03-03T12:20:13.572Z,11.30
2019-03-03T12:22:46.612Z,10.78
2019-03-03T12:25:22.083Z,9.05
2019-03-03T12:27:58.049Z,8.08
2019-03-03T12:30:31.001Z,7.03
2019-03-03T12:33:21.968Z,9.18
2019-03-03T12:36:06.831Z,7.37
2019-03-03T12:38:58.097Z,6.28
2019-03-03T12:41:30.887Z,6.90
2019-03-03T12:44:09.546Z,14.53
2019-03-03T12:47:00.468Z,11.53
2019-03-03T12:49:33.408Z,9.33
2019-03-03T12:52:06.189Z,6.22
2019-03-03T12:54:44.630Z,7.10
2019-03-03T12:57:20.344Z,8.10
2019-03-03T12:59:53.183Z,11.05
2019-03-03T13:02:44.566Z,17.32
2019-03-03T13:05:20.514Z,8.57
2019-03-03T13:07:56.201Z,7.80
2019-03-03T13:10:29.077Z,7.75
2019-03-03T13:13:01.990Z,9.93
2019-03-03T13:15:53.187Z,8.28
2019-03-03T13:18:27.610Z,7.15
2019-03-03T13:21:01.249Z,7.65
2019-03-03T13:23:46.269Z,7.10
2019-03-03T13:26:19.396Z,10.88
2019-03-03T13:28:55.337Z,9.80
2019-03-03T13:31:28.251Z,9.53
2019-03-03T13:34:13.741Z,12.07
2019-03-03T13:36:51.302Z,8.45
2019-03-03T13:39:39.183Z,10.70
2019-03-03T13:42:15.065Z,11.63
2019-03-03T13:44:46.392Z,13.58
2019-03-03T13:47:17.713Z,11.90
2019-03-03T13:49:49.201Z,16.87
2019-03-03T13:52:20.665Z,13.88
2019-03-03T13:54:51.898Z,12.82
2019-03-03T13:57:23.171Z,14.93
2019-03-03T13:59:54.587Z,12.47
2019-03-03T14:02:25.929Z,9.08
2019-03-03T14:04:57.380Z,7.75
2019-03-03T14:07:28.569Z,9.38
2019-03-03T14:09:59.881Z,9.40
2019-03-03T14:12:31.166Z,13.20
2019-03-03T14:15:02.503Z,8.80
2019-03-03T14:17:34.930Z,11.28
2019-03-03T14:20:09.517Z,9.00
2019-03-03T14:22:40.829Z,10.13
2019-03-03T14:25:12.158Z,10.58
2019-03-03T14:27:43.544Z,10.78
2019-03-03T14:30:17.802Z,7.50
2019-03-03T14:32:49.075Z,10.32
2019-03-03T14:35:20.401Z,11.30
2019-03-03T14:37:51.899Z,10.40
2019-03-03T14:40:23.331Z,10.88
2019-03-03T14:42:54.650Z,13.83
2019-03-03T14:45:25.947Z,13.83
2019-03-03T14:47:57.770Z,13.65
2019-03-03T14:50:29.087Z,21.23
2019-03-03T14:53:00.478Z,15.35
2019-03-03T14:55:31.979Z,14.47
2019-03-03T14:58:03.387Z,20.62
2019-03-03T15:00:34.749Z,30.20
2019-03-03T15:03:07.790Z,14.80
2019-03-03T15:05:39.269Z,32.75
2019-03-03T15:08:12.149Z,72.62
2019-03-03T15:10:43.606Z,100.80
2019-03-03T15:13:16.031Z,43.13
2019-03-03T15:15:47.717Z,134.27
2019-03-03T15:18:19.180Z,75.85
2019-03-03T15:20:50.624Z,41.83
2019-03-03T15:23:22.083Z,31.90
2019-03-03T15:25:53.401Z,22.10
2019-03-03T15:28:24.888Z,22.32
2019-03-03T15:30:56.262Z,23.35
2019-03-03T15:33:27.709Z,17.48
2019-03-03T15:35:59.162Z,22.73
2019-03-03T15:38:30.552Z,27.13
2019-03-03T15:41:01.863Z,32.48
2019-03-03T15:43:33.268Z,28.32
2019-03-03T15:46:04.591Z,20.80
2019-03-03T15:48:36.056Z,17.75
2019-03-03T15:51:07.380Z,17.23
2019-03-03T15:53:38.862Z,19.98
2019-03-03T15:56:10.190Z,19.52
2019-03-03T15:58:41.700Z,16.70
2019-03-03T16:01:14.795Z,17.20
2019-03-03T16:03:46.306Z,16.70
2019-03-03T16:06:17.632Z,15.60
2019-03-03T16:08:49.095Z,17.52
2019-03-03T16:11:20.469Z,16.23
2019-03-03T16:13:51.818Z,22.58
2019-03-03T16:16:23.292Z,30.40
2019-03-03T16:18:54.707Z,71.80
2019-03-03T16:21:26.139Z,23.02
2019-03-03T16:23:57.604Z,22.82
2019-03-03T16:26:28.917Z,20.55
2019-03-03T16:29:00.496Z,24.27
2019-03-03T16:31:32.054Z,16.30
2019-03-03T16:34:03.503Z,14.20
2019-03-03T16:36:34.946Z,11.65
2019-03-03T16:39:07.384Z,10.38
2019-03-03T16:41:39.200Z,10.00
2019-03-03T16:44:10.527Z,21.07
2019-03-03T16:46:42.543Z,18.87
2019-03-03T16:49:13.867Z,14.85
2019-03-03T16:51:45.270Z,20.43
2019-03-03T16:54:16.627Z,26.23
2019-03-03T16:56:47.995Z,26.40
2019-03-03T16:59:19.464Z,22.87
2019-03-03T17:01:50.888Z,22.02
2019-03-03T17:04:22.344Z,62.65
2019-03-03T17:06:53.693Z,65.50
2019-03-03T17:09:25.140Z,48.87
2019-03-03T17:11:56.460Z,28.75
2019-03-03T17:14:27.788Z,15.60
2019-03-03T17:16:59.377Z,15.30
2019-03-03T17:19:30.740Z,15.83
2019-03-03T17:22:02.190Z,17.48
2019-03-03T17:24:33.975Z,17.48
2019-03-03T17:27:05.472Z,20.35
2019-03-03T17:29:36.927Z,21.23
2019-03-03T17:32:08.276Z,27.73
2019-03-03T17:34:39.607Z,28.92
2019-03-03T17:37:10.977Z,27.70
2019-03-03T17:39:42.433Z,30.45
2019-03-03T17:42:13.972Z,30.43
2019-03-03T17:44:45.358Z,30.10
2019-03-03T17:47:16.787Z,30.52
2019-03-03T17:49:48.228Z,32.25
2019-03-03T17:52:19.638Z,28.27
2019-03-03T17:54:50.963Z,31.50
2019-03-03T17:57:22.304Z,28.38
2019-03-03T17:59:53.629Z,29.40
2019-03-03T18:02:25.059Z,30.62
2019-03-03T18:04:56.611Z,27.45
2019-03-03T18:07:28.832Z,26.10
2019-03-03T18:10:00.349Z,26.70
2019-03-03T18:12:33.101Z,25.65
2019-03-03T18:15:05.161Z,26.52
2019-03-03T18:20:10.076Z,24.15
2019-03-03T18:22:41.449Z,23.90
2019-03-03T18:25:15.589Z,23.20
2019-03-03T18:27:46.913Z,21.02
2019-03-03T18:30:26.626Z,21.12
2019-03-03T18:32:57.961Z,20.92
2019-03-03T18:35:29.487Z,19.85
2019-03-03T18:38:00.834Z,18.50
2019-03-03T18:40:32.212Z,18.57
2019-03-03T18:43:04.844Z,19.80
2019-03-03T18:45:36.297Z,20.48
2019-03-03T18:48:07.763Z,19.20
2019-03-03T18:50:39.122Z,14.93
2019-03-03T18:53:10.563Z,18.87
2019-03-03T18:55:41.905Z,16.23
2019-03-03T18:58:13.304Z,19.15
2019-03-03T19:00:44.565Z,18.07
2019-03-03T19:03:18.107Z,18.70
2019-03-03T19:05:55.610Z,17.85
2019-03-03T19:08:22.662Z,18.37
2019-03-03T19:10:54.085Z,19.12
2019-03-03T19:13:25.412Z,17.52
2019-03-03T19:15:56.726Z,17.67
2019-03-03T19:18:28.048Z,13.13
2019-03-03T19:20:59.899Z,17.07
2019-03-03T19:23:31.249Z,17.67
2019-03-03T19:26:02.672Z,17.87
2019-03-03T19:28:34.150Z,18.35
2019-03-03T19:31:06.835Z,19.60
2019-03-03T19:33:44.277Z,17.82
2019-03-03T19:36:15.595Z,20.77
2019-03-03T19:38:46.969Z,21.05
2019-03-03T19:41:18.338Z,15.00
2019-03-03T19:43:49.803Z,21.65
2019-03-03T19:46:21.251Z,20.27
2019-03-03T19:48:52.884Z,19.35
2019-03-03T19:51:24.185Z,20.62
2019-03-03T19:53:55.513Z,19.55
2019-03-03T19:56:26.837Z,16.17
2019-03-03T19:58:59.165Z,21.80
2019-03-03T20:01:30.473Z,27.22
2019-03-03T20:04:01.906Z,20.75
2019-03-03T20:06:33.365Z,18.98
2019-03-03T20:09:06.863Z,19.25
2019-03-03T20:11:39.740Z,18.90
2019-03-03T20:14:11.076Z,18.35
2019-03-03T20:16:42.389Z,18.90
2019-03-03T20:19:13.782Z,17.35
2019-03-03T20:21:45.094Z,18.00
2019-03-03T20:24:16.469Z,15.85
2019-03-03T20:26:47.786Z,15.80
2019-03-03T20:29:19.122Z,15.50
2019-03-03T20:31:50.515Z,16.45
2019-03-03T20:34:21.959Z,15.93
2019-03-03T20:36:53.311Z,17.32
2019-03-03T20:39:24.754Z,17.80
2019-03-03T20:41:56.236Z,18.67
2019-03-03T20:44:27.603Z,17.23
2019-03-03T20:46:59.143Z,18.30
2019-03-03T20:49:30.846Z,18.37
2019-03-03T20:52:02.197Z,18.87
2019-03-03T20:54:33.495Z,18.75
2019-03-03T20:57:04.921Z,19.52
2019-03-03T20:59:36.246Z,18.70
2019-03-03T21:02:07.576Z,20.23
2019-03-03T21:04:38.955Z,19.67
2019-03-03T21:07:11.213Z,19.57
2019-03-03T21:09:42.696Z,21.07
2019-03-03T21:12:13.936Z,20.25
2019-03-03T21:14:45.382Z,19.75
2019-03-03T21:17:16.624Z,22.30
2019-03-03T21:19:47.871Z,22.05
2019-03-03T21:22:19.318Z,21.62
2019-03-03T21:24:50.650Z,22.13
2019-03-03T21:27:22.130Z,24.02
2019-03-03T21:29:53.367Z,23.70
2019-03-03T21:32:24.808Z,23.90
2019-03-03T21:34:56.272Z,23.35
2019-03-03T21:37:27.723Z,22.40
2019-03-03T21:39:59.154Z,23.35
2019-03-03T21:42:30.523Z,23.22
2019-03-03T21:45:01.949Z,22.13
2019-03-03T21:47:33.418Z,26.50
2019-03-03T21:50:07.307Z,23.15
2019-03-03T21:52:38.647Z,22.93
2019-03-03T21:55:11.971Z,23.83
2019-03-03T21:57:43.412Z,23.38
2019-03-03T22:00:27.279Z,21.30
2019-03-03T22:02:58.700Z,20.70
2019-03-03T22:05:30.093Z,23.42
2019-03-03T22:08:01.465Z,21.77
2019-03-03T22:10:33.465Z,21.85
2019-03-03T22:13:07.568Z,21.02
2019-03-03T22:15:38.921Z,24.05
2019-03-03T22:18:10.278Z,21.75
2019-03-03T22:20:41.745Z,23.73
2019-03-03T22:23:13.173Z,21.45
2019-03-03T22:25:44.534Z,22.60
2019-03-03T22:28:15.891Z,23.60
2019-03-03T22:30:47.199Z,18.98
2019-03-03T22:33:18.520Z,21.87
2019-03-03T22:35:49.854Z,24.43
2019-03-03T22:38:21.465Z,23.42
2019-03-03T22:40:52.778Z,22.13
2019-03-03T22:43:24.266Z,22.00
2019-03-03T22:45:55.591Z,21.77
2019-03-03T22:48:27.055Z,21.10
2019-03-03T22:50:58.509Z,22.27
2019-03-03T22:53:29.961Z,23.45
2019-03-03T22:56:01.281Z,15.20
2019-03-03T22:58:32.855Z,23.80
2019-03-03T23:01:07.723Z,22.20
2019-03-03T23:03:59.986Z,22.65
2019-03-03T23:06:53.648Z,22.65
2019-03-03T23:12:31.224Z,23.15
2019-03-03T23:15:11.440Z,24.47
2019-03-03T23:17:51.511Z,22.98
2019-03-03T23:20:44.256Z,22.82
2019-03-03T23:23:42.734Z,22.52
2019-03-03T23:26:16.851Z,22.27
2019-03-03T23:28:47.296Z,20.77
2019-03-03T23:31:19.889Z,22.05
2019-03-03T23:33:51.319Z,20.75
2019-03-03T23:36:22.708Z,21.15
2019-03-03T23:38:54.036Z,19.32
2019-03-03T23:41:25.347Z,20.62
2019-03-03T23:43:58.753Z,15.30
2019-03-03T23:46:30.186Z,19.32
2019-03-03T23:49:01.656Z,18.57
2019-03-03T23:51:33.006Z,19.02
2019-03-03T23:54:04.485Z,19.07
2019-03-03T23:56:35.911Z,20.57
2019-03-03T23:59:07.354Z,19.35
